Time;durP1;ratioP1;P1;durP2;ratioP2;P2;SDS_P1;SDS_P2;PMS_P1;PMS_P2;Temp;Humidity;BMP_temperature;BMP_pressure;BME280_temperature;BME280_humidity;BME280_pressure;Samples;Min_cycle;Max_cycle;Signal;HPM_P1;HPM_P2
2023/10/04 00:02:11;;;;;;;9.90;9.60;;;13.10;99.90;;;;;;4979293;28;20301;-82
2023/10/04 00:04:39;;;;;;;10.10;9.80;;;13.10;99.90;;;;;;4981144;28;20242;-82
2023/10/04 00:07:07;;;;;;;10.03;9.73;;;13.10;99.90;;;;;;4982843;28;20225;-82
2023/10/04 00:09:34;;;;;;;10.00;9.70;;;13.10;99.90;;;;;;4983423;28;20321;-82
2023/10/04 00:12:03;;;;;;;9.97;9.67;;;13.10;99.90;;;;;;4983350;28;20245;-84
2023/10/04 00:17:11;;;;;;;9.87;9.57;;;13.10;99.90;;;;;;4983546;28;20229;-82
2023/10/04 00:19:42;;;;;;;9.97;9.67;;;13.10;99.90;;;;;;4984082;28;20226;-83
2023/10/04 00:22:12;;;;;;;9.80;9.50;;;13.10;99.90;;;;;;4984538;28;20245;-81
2023/10/04 00:27:20;;;;;;;10.00;9.70;;;13.10;99.90;;;;;;4984443;28;20316;-82
2023/10/04 00:29:48;;;;;;;10.07;9.77;;;13.10;99.90;;;;;;4990287;28;20277;-82
2023/10/04 00:32:22;;;;;;;10.03;9.73;;;13.10;99.90;;;;;;4990822;28;20274;-82
2023/10/04 00:34:51;;;;;;;9.80;9.50;;;13.00;99.90;;;;;;4987188;28;20230;-82
2023/10/04 00:37:20;;;;;;;9.87;9.57;;;13.00;99.90;;;;;;4985834;28;20241;-82
2023/10/04 00:39:48;;;;;;;9.90;9.60;;;13.00;99.90;;;;;;4989940;28;20248;-81
2023/10/04 00:42:22;;;;;;;10.10;9.80;;;13.00;99.90;;;;;;4989747;28;20495;-82
2023/10/04 00:44:51;;;;;;;9.90;9.60;;;13.00;99.90;;;;;;4986030;28;20301;-82
2023/10/04 00:47:18;;;;;;;9.87;9.57;;;13.00;99.90;;;;;;4985558;28;20229;-82
2023/10/04 00:49:46;;;;;;;9.73;9.43;;;12.90;99.90;;;;;;4987614;28;20214;-79
2023/10/04 00:52:15;;;;;;;9.87;9.57;;;12.90;99.90;;;;;;4989690;28;20251;-80
2023/10/04 00:54:46;;;;;;;9.73;9.43;;;12.80;99.90;;;;;;4984679;28;20234;-80
2023/10/04 00:57:14;;;;;;;9.60;9.30;;;12.80;99.90;;;;;;4985516;28;20249;-80
2023/10/04 00:59:43;;;;;;;9.43;9.13;;;12.80;99.90;;;;;;4985175;28;20305;-83
2023/10/04 01:02:13;;;;;;;9.60;9.30;;;12.70;99.90;;;;;;4987796;28;20261;-82
2023/10/04 01:04:42;;;;;;;9.40;9.10;;;12.60;99.90;;;;;;4984394;28;20241;-82
2023/10/04 01:07:16;;;;;;;9.50;9.20;;;12.60;99.90;;;;;;4984492;28;20277;-82
2023/10/04 01:09:45;;;;;;;9.30;9.00;;;12.50;99.90;;;;;;4984322;28;20274;-83
2023/10/04 01:12:12;;;;;;;9.50;9.20;;;12.40;99.90;;;;;;4982445;28;20265;-80
2023/10/04 01:14:41;;;;;;;9.53;9.23;;;12.40;99.90;;;;;;4982156;28;20308;-81
2023/10/04 01:17:12;;;;;;;9.40;9.10;;;12.40;99.90;;;;;;4983714;28;20245;-80
2023/10/04 01:19:40;;;;;;;9.27;8.97;;;12.30;99.90;;;;;;4984251;28;20244;-81
2023/10/04 01:22:11;;;;;;;9.43;9.13;;;12.30;99.90;;;;;;4983548;28;20237;-81
2023/10/04 01:24:41;;;;;;;9.50;9.20;;;12.30;99.90;;;;;;4984219;28;20237;-81
2023/10/04 01:27:09;;;;;;;9.50;9.20;;;12.30;99.90;;;;;;4983947;28;20236;-81
2023/10/04 01:29:38;;;;;;;9.37;9.07;;;12.20;99.90;;;;;;4982483;28;20250;-80
2023/10/04 01:32:08;;;;;;;9.30;9.00;;;12.20;99.90;;;;;;4981978;28;20320;-79
2023/10/04 01:34:36;;;;;;;9.20;8.90;;;12.10;99.90;;;;;;4981855;28;20256;-80
2023/10/04 01:37:04;;;;;;;9.30;9.00;;;12.10;99.90;;;;;;4981911;28;20226;-80
2023/10/04 01:39:37;;;;;;;9.50;9.20;;;12.10;99.90;;;;;;4982146;28;20289;-80
2023/10/04 01:42:04;;;;;;;9.37;9.07;;;12.00;99.90;;;;;;4981616;28;20270;-80
2023/10/04 01:44:32;;;;;;;9.40;9.10;;;12.00;99.90;;;;;;4982230;28;20252;-80
2023/10/04 01:47:02;;;;;;;9.30;9.00;;;11.90;99.90;;;;;;4985278;28;20234;-79
2023/10/04 01:49:32;;;;;;;9.37;9.07;;;11.90;99.90;;;;;;4984301;28;20288;-78
2023/10/04 01:52:05;;;;;;;9.27;8.97;;;11.90;99.90;;;;;;4981798;28;20774;-80
2023/10/04 01:54:34;;;;;;;9.50;9.20;;;11.80;99.90;;;;;;4982622;28;20241;-80
2023/10/04 01:57:04;;;;;;;9.60;9.30;;;11.70;99.90;;;;;;4986889;28;20225;-80
2023/10/04 01:59:32;;;;;;;9.27;8.97;;;11.60;99.90;;;;;;4984994;28;20213;-82
2023/10/04 02:01:59;;;;;;;9.60;9.30;;;11.60;99.90;;;;;;4983561;28;20234;-80
2023/10/04 02:04:28;;;;;;;9.33;9.03;;;11.50;99.90;;;;;;4988583;28;20241;-80
2023/10/04 02:09:39;;;;;;;9.30;9.00;;;11.40;99.90;;;;;;4989343;28;20253;-80
2023/10/04 02:12:07;;;;;;;9.67;9.37;;;11.40;99.90;;;;;;4991072;28;20252;-80
2023/10/04 02:14:35;;;;;;;9.37;9.07;;;11.40;99.90;;;;;;4991081;28;20253;-79
2023/10/04 02:17:08;;;;;;;9.40;9.10;;;11.30;99.90;;;;;;4988375;28;20264;-81
2023/10/04 02:19:35;;;;;;;9.50;9.20;;;11.30;99.90;;;;;;4989169;28;20224;-80
2023/10/04 02:22:07;;;;;;;9.40;9.10;;;11.30;99.90;;;;;;4988713;28;20328;-81
2023/10/04 02:24:34;;;;;;;9.50;9.20;;;11.30;99.90;;;;;;4986299;28;20324;-81
2023/10/04 02:27:06;;;;;;;9.40;9.10;;;11.30;99.90;;;;;;4985985;28;20226;-81
2023/10/04 02:29:34;;;;;;;9.57;9.27;;;11.20;99.90;;;;;;4986346;28;20218;-81
2023/10/04 02:32:08;;;;;;;9.37;9.07;;;11.30;99.90;;;;;;4985861;28;20237;-81
2023/10/04 02:34:35;;;;;;;9.60;9.30;;;11.20;99.90;;;;;;4986008;28;20272;-81
2023/10/04 02:37:06;;;;;;;9.20;8.90;;;11.20;99.90;;;;;;4985961;28;20256;-81
2023/10/04 02:39:36;;;;;;;9.40;9.10;;;11.10;99.90;;;;;;4985874;28;20225;-81
2023/10/04 02:42:09;;;;;;;9.30;9.00;;;11.10;99.90;;;;;;4984986;28;20249;-80
2023/10/04 02:44:39;;;;;;;9.33;9.03;;;11.00;99.90;;;;;;4986299;28;20244;-81
2023/10/04 02:47:08;;;;;;;9.20;8.90;;;10.90;99.90;;;;;;4984916;28;20253;-80
2023/10/04 02:49:47;;;;;;;9.27;8.97;;;10.80;99.90;;;;;;4985427;28;20265;-81
2023/10/04 02:52:16;;;;;;;9.50;9.20;;;10.80;99.90;;;;;;4985624;28;20235;-81
2023/10/04 02:54:47;;;;;;;9.40;9.10;;;10.70;99.90;;;;;;4985676;28;20296;-81
2023/10/04 02:57:18;;;;;;;9.53;9.23;;;10.70;99.90;;;;;;4985492;28;20316;-81
2023/10/04 02:59:45;;;;;;;9.40;9.10;;;10.60;99.90;;;;;;4985829;28;20310;-81
2023/10/04 03:02:24;;;;;;;9.40;9.10;;;10.60;99.90;;;;;;4985835;28;20253;-81
2023/10/04 03:04:53;;;;;;;9.50;9.20;;;10.60;99.90;;;;;;4985617;28;20229;-81
2023/10/04 03:07:21;;;;;;;9.50;9.20;;;10.50;99.90;;;;;;4985590;28;20233;-81
2023/10/04 03:09:50;;;;;;;9.70;9.40;;;10.40;99.90;;;;;;4985632;28;20301;-81
2023/10/04 03:12:23;;;;;;;9.40;9.10;;;10.40;99.90;;;;;;4985474;28;20261;-80
2023/10/04 03:14:51;;;;;;;9.53;9.23;;;10.40;99.90;;;;;;4985831;28;20237;-79
2023/10/04 03:17:19;;;;;;;9.47;9.17;;;10.40;99.90;;;;;;4985284;28;20240;-80
2023/10/04 03:19:47;;;;;;;9.30;9.00;;;10.40;99.90;;;;;;4985430;28;20233;-80
2023/10/04 03:22:22;;;;;;;9.33;9.03;;;10.40;99.90;;;;;;4985013;28;20248;-81
2023/10/04 03:24:49;;;;;;;9.60;9.30;;;10.40;99.90;;;;;;4984569;28;20295;-81
2023/10/04 03:27:21;;;;;;;9.50;9.20;;;10.40;99.90;;;;;;4985187;28;20240;-81
2023/10/04 03:29:48;;;;;;;9.37;9.07;;;10.40;99.90;;;;;;4983518;28;20314;-80
2023/10/04 03:32:16;;;;;;;9.33;9.03;;;10.40;99.90;;;;;;4983054;28;20317;-81
2023/10/04 03:34:55;;;;;;;9.27;8.97;;;10.30;99.90;;;;;;4982570;28;20269;-81
2023/10/04 03:37:30;;;;;;;9.50;9.20;;;10.30;99.90;;;;;;4982172;28;20241;-81
2023/10/04 03:42:49;;;;;;;9.33;9.03;;;10.30;99.90;;;;;;4984853;28;20263;-80
2023/10/04 03:45:20;;;;;;;9.40;9.10;;;10.30;99.90;;;;;;4985772;28;20244;-81
2023/10/04 03:47:50;;;;;;;9.40;9.10;;;10.20;99.90;;;;;;4985840;28;20244;-83
2023/10/04 03:50:19;;;;;;;9.47;9.17;;;10.20;99.90;;;;;;4986673;28;20257;-81
2023/10/04 03:52:51;;;;;;;9.37;9.07;;;10.20;99.90;;;;;;4985047;28;20245;-82
2023/10/04 03:55:18;;;;;;;9.43;9.13;;;10.30;99.90;;;;;;4985943;28;20229;-83
2023/10/04 03:57:50;;;;;;;9.27;8.97;;;10.20;99.90;;;;;;4985772;28;20226;-82
2023/10/04 04:00:21;;;;;;;9.40;9.10;;;10.20;99.90;;;;;;4985483;28;20229;-83
2023/10/04 04:02:54;;;;;;;9.33;9.03;;;10.20;99.90;;;;;;4985329;28;20245;-82
2023/10/04 04:05:23;;;;;;;9.50;9.20;;;10.10;99.90;;;;;;4985522;28;20241;-83
2023/10/04 04:07:52;;;;;;;9.30;9.00;;;10.10;99.90;;;;;;4985479;28;20236;-82
2023/10/04 04:10:22;;;;;;;9.30;9.00;;;10.10;99.90;;;;;;4985620;28;20226;-83
2023/10/04 04:12:55;;;;;;;9.10;8.80;;;10.10;99.90;;;;;;4986509;28;20265;-82
2023/10/04 04:15:23;;;;;;;9.13;8.83;;;10.10;99.90;;;;;;4987066;28;20238;-82
2023/10/04 04:17:50;;;;;;;9.10;8.80;;;10.10;99.90;;;;;;4985500;28;20230;-81
2023/10/04 04:20:19;;;;;;;8.90;8.60;;;10.10;99.90;;;;;;4985457;28;20226;-82
2023/10/04 04:22:50;;;;;;;9.23;8.93;;;10.10;99.90;;;;;;4988897;28;20241;-81
2023/10/04 04:25:19;;;;;;;9.43;9.13;;;10.10;99.90;;;;;;4990793;28;20250;-82
2023/10/04 04:27:49;;;;;;;9.20;8.90;;;10.10;99.90;;;;;;4991225;28;20244;-82
2023/10/04 04:33:07;;;;;;;9.00;8.70;;;10.10;99.90;;;;;;4985632;28;20233;-82
2023/10/04 04:38:41;;;;;;;8.87;8.57;;;10.00;99.90;;;;;;5160608;27;20621;-82
2023/10/04 04:41:12;;;;;;;9.17;8.87;;;10.00;99.90;;;;;;5140451;27;20261;-82
2023/10/04 04:43:39;;;;;;;9.23;8.93;;;9.90;99.90;;;;;;5140477;27;20282;-82
2023/10/04 04:46:08;;;;;;;8.97;8.67;;;9.90;99.90;;;;;;5140622;27;20268;-82
2023/10/04 04:48:37;;;;;;;9.17;8.87;;;9.80;99.90;;;;;;5139982;27;20316;-82
2023/10/04 04:51:11;;;;;;;9.20;8.90;;;9.80;99.90;;;;;;5140110;27;20224;-82
2023/10/04 04:53:41;;;;;;;9.00;8.70;;;9.80;99.90;;;;;;5139487;27;20230;-82
2023/10/04 04:56:12;;;;;;;9.30;9.00;;;9.70;99.90;;;;;;5140457;27;20224;-82
2023/10/04 04:58:47;;;;;;;9.00;8.70;;;9.70;99.90;;;;;;5140164;27;20256;-82
2023/10/04 05:01:14;;;;;;;9.27;8.97;;;9.70;99.90;;;;;;5140509;27;20279;-82
2023/10/04 05:03:45;;;;;;;9.30;9.00;;;9.80;99.90;;;;;;5140407;27;20254;-82
2023/10/04 05:06:13;;;;;;;9.60;9.30;;;9.80;99.90;;;;;;5140065;27;20234;-82
2023/10/04 05:08:42;;;;;;;9.63;9.33;;;9.70;99.90;;;;;;5140004;27;20243;-82
2023/10/04 05:11:11;;;;;;;9.70;9.40;;;9.80;99.90;;;;;;5140516;27;20263;-82
2023/10/04 05:13:51;;;;;;;9.67;9.37;;;9.70;99.90;;;;;;5139389;27;20227;-82
2023/10/04 05:16:20;;;;;;;9.97;9.67;;;9.70;99.90;;;;;;5155175;27;20243;-82
2023/10/04 05:18:49;;;;;;;9.60;9.30;;;9.60;99.90;;;;;;5140169;27;20301;-81
2023/10/04 05:21:17;;;;;;;9.70;9.40;;;9.60;99.90;;;;;;5143896;27;20228;-81
2023/10/04 05:23:51;;;;;;;10.00;9.70;;;9.60;99.90;;;;;;5139773;27;20251;-82
2023/10/04 05:26:19;;;;;;;9.80;9.50;;;9.60;99.90;;;;;;5140008;27;20224;-81
2023/10/04 05:28:46;;;;;;;9.63;9.33;;;9.50;99.90;;;;;;5143838;27;20255;-82
2023/10/04 05:31:13;;;;;;;10.20;9.90;;;9.50;99.90;;;;;;5139847;27;20259;-83
2023/10/04 05:36:24;;;;;;;9.50;9.20;;;9.40;99.90;;;;;;5139063;27;20226;-82
2023/10/04 05:38:55;;;;;;;9.50;9.20;;;9.40;99.90;;;;;;5139511;27;20224;-82
2023/10/04 05:41:25;;;;;;;9.50;9.20;;;9.40;99.90;;;;;;5139166;27;20717;-81
2023/10/04 05:43:52;;;;;;;9.40;9.10;;;9.40;99.90;;;;;;5139753;27;20228;-82
2023/10/04 05:46:21;;;;;;;9.50;9.20;;;9.40;99.90;;;;;;5139341;27;20220;-82
2023/10/04 05:48:51;;;;;;;9.30;9.00;;;9.40;99.90;;;;;;5132114;27;20236;-82
2023/10/04 05:51:24;;;;;;;9.50;9.20;;;9.40;99.90;;;;;;5125974;28;20329;-87
2023/10/04 05:53:53;;;;;;;9.00;8.70;;;9.40;99.90;;;;;;5128018;27;20241;-84
2023/10/04 05:56:21;;;;;;;9.10;8.80;;;9.50;99.90;;;;;;5128923;27;20224;-86
2023/10/04 05:58:49;;;;;;;8.87;8.60;;;9.50;99.90;;;;;;5127891;27;20232;-85
2023/10/04 06:01:19;;;;;;;8.90;8.60;;;9.60;99.90;;;;;;5127956;27;20228;-85
2023/10/04 06:03:47;;;;;;;8.97;8.67;;;9.70;99.90;;;;;;5129505;27;20221;-83
2023/10/04 06:06:26;;;;;;;9.00;8.70;;;9.70;99.90;;;;;;5128979;27;20228;-85
2023/10/04 06:08:59;;;;;;;9.00;8.70;;;9.80;99.90;;;;;;5127295;27;20319;-85
2023/10/04 06:11:26;;;;;;;9.10;8.80;;;9.90;99.90;;;;;;5127330;27;20235;-85
2023/10/04 06:13:55;;;;;;;8.90;8.60;;;9.90;99.90;;;;;;5130334;27;20225;-84
2023/10/04 06:16:22;;;;;;;9.07;8.77;;;10.00;99.90;;;;;;5128452;28;20208;-83
2023/10/04 06:18:49;;;;;;;9.13;8.83;;;10.20;99.90;;;;;;5128431;28;20243;-83
2023/10/04 06:21:17;;;;;;;9.20;8.90;;;10.30;99.90;;;;;;5128612;28;20233;-83
2023/10/04 06:23:44;;;;;;;8.77;8.57;;;10.30;99.90;;;;;;5131344;27;20217;-83
2023/10/04 06:26:16;;;;;;;9.13;8.83;;;10.40;99.90;;;;;;5127346;27;20245;-83
2023/10/04 06:28:46;;;;;;;9.00;8.70;;;10.40;99.90;;;;;;5126793;27;20252;-83
2023/10/04 06:31:13;;;;;;;9.00;8.70;;;10.40;99.90;;;;;;5127195;28;20228;-84
2023/10/04 06:33:40;;;;;;;8.60;8.40;;;10.40;99.90;;;;;;5126754;27;20260;-82
2023/10/04 06:36:09;;;;;;;8.80;8.60;;;10.40;99.90;;;;;;5126944;27;20240;-83
2023/10/04 06:38:36;;;;;;;9.10;8.80;;;10.50;99.90;;;;;;5126694;27;20297;-83
2023/10/04 06:41:03;;;;;;;8.80;8.60;;;10.50;99.90;;;;;;5126132;27;20263;-83
2023/10/04 06:43:32;;;;;;;8.70;8.50;;;10.60;99.90;;;;;;5126931;27;20285;-82
2023/10/04 06:45:59;;;;;;;9.27;8.97;;;10.70;99.90;;;;;;5126891;27;20467;-81
2023/10/04 06:48:26;;;;;;;8.73;8.53;;;10.70;99.90;;;;;;5126239;27;20233;-82
2023/10/04 06:50:53;;;;;;;9.10;8.80;;;10.80;99.90;;;;;;5126446;27;20227;-81
2023/10/04 06:53:22;;;;;;;8.50;8.30;;;10.90;99.90;;;;;;5126236;27;20236;-82
2023/10/04 06:55:49;;;;;;;8.70;8.50;;;10.90;99.90;;;;;;5126140;28;20229;-82
2023/10/04 06:58:16;;;;;;;8.50;8.30;;;10.90;99.90;;;;;;5126266;27;20247;-82
2023/10/04 07:00:45;;;;;;;8.23;8.03;;;11.00;99.90;;;;;;5125080;27;20233;-81
2023/10/04 07:03:12;;;;;;;7.90;7.70;;;11.00;99.90;;;;;;5126471;27;20302;-82
2023/10/04 07:05:41;;;;;;;8.03;7.83;;;11.10;99.90;;;;;;5126844;28;20276;-82
2023/10/04 07:08:12;;;;;;;8.33;8.13;;;11.10;99.90;;;;;;5126940;27;20301;-81
2023/10/04 07:10:39;;;;;;;8.20;8.00;;;11.20;99.90;;;;;;5126709;27;20252;-82
2023/10/04 07:13:07;;;;;;;8.30;8.10;;;11.40;99.90;;;;;;5126535;27;20300;-81
2023/10/04 07:15:35;;;;;;;8.37;8.17;;;11.50;99.90;;;;;;5127300;28;20224;-81
2023/10/04 07:18:06;;;;;;;8.00;7.80;;;11.60;99.90;;;;;;5125726;27;20276;-82
2023/10/04 07:20:34;;;;;;;8.23;8.03;;;11.70;99.90;;;;;;5126637;27;20232;-82
2023/10/04 07:23:03;;;;;;;8.13;7.93;;;11.80;99.90;;;;;;5125163;27;20238;-82
2023/10/04 07:25:34;;;;;;;8.10;7.90;;;11.90;99.90;;;;;;5125636;27;20236;-82
2023/10/04 07:28:05;;;;;;;8.43;8.23;;;12.10;99.90;;;;;;5125735;27;20231;-82
2023/10/04 07:30:35;;;;;;;8.50;8.30;;;12.20;99.90;;;;;;5125455;27;20228;-81
2023/10/04 07:33:04;;;;;;;8.50;8.30;;;12.30;99.90;;;;;;5125083;27;20300;-82
2023/10/04 07:35:33;;;;;;;8.60;8.40;;;12.40;99.90;;;;;;5125037;27;20240;-81
2023/10/04 07:38:03;;;;;;;8.77;8.57;;;12.50;99.90;;;;;;5124955;27;20327;-82
2023/10/04 07:40:31;;;;;;;8.97;8.73;;;12.60;99.90;;;;;;5131064;27;20253;-81
2023/10/04 07:42:59;;;;;;;9.20;8.90;;;12.60;99.90;;;;;;5126535;27;20236;-82
2023/10/04 07:45:28;;;;;;;9.30;9.00;;;12.70;99.90;;;;;;5126689;27;20221;-82
2023/10/04 07:47:56;;;;;;;9.63;9.33;;;12.80;99.90;;;;;;5126458;27;20229;-82
2023/10/04 07:50:25;;;;;;;9.30;9.00;;;12.90;99.90;;;;;;5126317;27;20282;-81
2023/10/04 07:52:55;;;;;;;9.77;9.47;;;13.00;99.90;;;;;;5126332;27;20233;-82
2023/10/04 07:55:25;;;;;;;9.97;9.67;;;13.10;99.90;;;;;;5126871;27;20227;-81
2023/10/04 07:57:56;;;;;;;9.60;9.30;;;13.20;99.90;;;;;;5128370;28;20240;-82
2023/10/04 08:00:23;;;;;;;9.80;9.50;;;13.30;99.90;;;;;;5129019;27;20732;-81
2023/10/04 08:02:51;;;;;;;9.90;9.60;;;13.40;99.90;;;;;;5126757;27;20447;-82
2023/10/04 08:05:20;;;;;;;10.10;9.80;;;13.40;99.90;;;;;;5127147;27;20215;-81
2023/10/04 08:07:50;;;;;;;10.03;9.73;;;13.50;99.90;;;;;;5126773;27;20275;-82
2023/10/04 08:10:18;;;;;;;10.00;9.70;;;13.60;99.90;;;;;;5129813;27;20225;-81
2023/10/04 08:12:46;;;;;;;10.17;9.87;;;13.70;99.90;;;;;;5126608;27;20236;-82
2023/10/04 08:15:14;;;;;;;10.37;10.07;;;13.80;99.90;;;;;;5127424;27;20221;-81
2023/10/04 08:17:43;;;;;;;10.50;10.20;;;13.90;99.90;;;;;;5126388;28;20272;-82
2023/10/04 08:20:13;;;;;;;10.50;10.20;;;14.00;99.90;;;;;;5126670;27;20233;-83
2023/10/04 08:22:41;;;;;;;10.60;10.30;;;14.00;99.90;;;;;;5126699;27;20239;-81
2023/10/04 08:25:14;;;;;;;10.63;10.33;;;14.10;99.90;;;;;;5126588;27;20282;-81
2023/10/04 08:27:41;;;;;;;10.40;10.10;;;14.30;99.90;;;;;;5125955;27;20286;-82
2023/10/04 08:30:11;;;;;;;10.33;10.03;;;14.50;99.90;;;;;;5126679;27;20239;-82
2023/10/04 08:32:40;;;;;;;10.13;9.82;;;14.50;99.90;;;;;;5126278;27;20296;-81
2023/10/04 08:35:21;;;;;;;10.40;10.10;;;14.50;99.90;;;;;;5127120;27;20240;-80
2023/10/04 08:37:49;;;;;;;10.30;10.00;;;14.70;99.90;;;;;;5126877;27;20268;-80
2023/10/04 08:40:18;;;;;;;10.27;9.98;;;14.80;99.90;;;;;;5127858;27;20233;-79
2023/10/04 08:42:45;;;;;;;10.30;10.00;;;15.00;99.90;;;;;;5125942;27;20324;-79
2023/10/04 08:45:13;;;;;;;10.43;10.13;;;15.20;99.90;;;;;;5128511;27;20217;-80
2023/10/04 08:47:41;;;;;;;10.60;10.30;;;15.30;99.90;;;;;;5128218;27;20224;-79
2023/10/04 08:50:13;;;;;;;10.50;10.20;;;15.60;99.90;;;;;;5125512;27;20244;-81
2023/10/04 08:52:43;;;;;;;10.35;10.05;;;15.90;99.90;;;;;;5122641;27;20243;-81
2023/10/04 08:55:17;;;;;;;10.70;10.40;;;16.20;99.90;;;;;;5123950;27;20236;-78
2023/10/04 08:57:46;;;;;;;10.45;10.15;;;16.30;99.90;;;;;;5123225;27;20235;-78
2023/10/04 09:00:14;;;;;;;10.23;9.93;;;16.60;99.90;;;;;;5125008;27;20278;-79
2023/10/04 09:02:45;;;;;;;10.57;10.27;;;16.70;99.90;;;;;;5126385;27;20224;-79
2023/10/04 09:05:16;;;;;;;10.68;10.38;;;16.80;99.90;;;;;;5125992;27;20294;-79
2023/10/04 09:07:44;;;;;;;10.80;10.50;;;17.00;99.90;;;;;;5127171;27;20225;-79
2023/10/04 09:10:16;;;;;;;10.65;10.35;;;17.10;99.90;;;;;;5130129;27;20231;-79
2023/10/04 09:12:46;;;;;;;10.80;10.50;;;17.20;99.90;;;;;;5131520;27;20229;-80
2023/10/04 09:15:13;;;;;;;10.73;10.43;;;17.30;99.90;;;;;;5127230;27;20221;-80
2023/10/04 09:17:47;;;;;;;11.05;10.75;;;17.50;99.90;;;;;;5127672;27;20233;-78
2023/10/04 09:20:16;;;;;;;10.88;10.57;;;17.70;99.90;;;;;;5126811;27;20233;-79
2023/10/04 09:22:44;;;;;;;10.85;10.55;;;18.00;99.90;;;;;;5125519;27;20224;-79
2023/10/04 09:25:11;;;;;;;11.23;10.93;;;18.30;99.90;;;;;;5123207;27;20705;-81
2023/10/04 09:27:46;;;;;;;10.80;10.50;;;18.40;99.90;;;;;;5113878;27;20235;-84
2023/10/04 09:30:25;;;;;;;10.73;10.43;;;18.40;99.90;;;;;;5114411;27;20255;-80
2023/10/04 09:32:53;;;;;;;10.60;10.30;;;18.50;99.90;;;;;;5117771;28;20236;-81
2023/10/04 09:35:20;;;;;;;10.40;10.10;;;18.70;99.90;;;;;;5127702;28;20217;-80
2023/10/04 09:37:50;;;;;;;10.70;10.40;;;18.80;99.90;;;;;;5126968;27;20259;-80
2023/10/04 09:40:23;;;;;;;10.20;9.90;;;19.00;99.90;;;;;;5151170;27;20230;-82
2023/10/04 09:42:53;;;;;;;10.60;10.30;;;19.20;99.90;;;;;;5132534;27;20258;-82
2023/10/04 09:45:24;;;;;;;10.65;10.35;;;19.30;99.90;;;;;;5148683;27;20242;-82
2023/10/04 09:47:54;;;;;;;10.25;9.95;;;19.00;99.90;;;;;;5128974;27;20221;-81
2023/10/04 09:50:23;;;;;;;10.40;10.10;;;18.80;99.90;;;;;;5137307;27;20232;-79
2023/10/04 09:52:50;;;;;;;10.50;10.20;;;19.00;99.90;;;;;;5149979;27;20242;-83
2023/10/04 09:55:20;;;;;;;10.57;10.27;;;18.90;99.90;;;;;;5134792;27;20284;-81
2023/10/04 09:57:49;;;;;;;10.48;10.18;;;19.00;99.90;;;;;;5130659;28;20266;-81
2023/10/04 10:00:22;;;;;;;10.23;9.93;;;19.20;99.90;;;;;;5127664;27;20229;-79
2023/10/04 10:02:54;;;;;;;10.48;10.18;;;19.40;99.90;;;;;;5124226;28;20240;-83
2023/10/04 10:05:28;;;;;;;10.60;10.30;;;19.30;99.90;;;;;;5130634;27;20278;-82
2023/10/04 10:08:04;;;;;;;10.70;10.40;;;19.40;99.90;;;;;;5130872;27;20245;-81
2023/10/04 10:10:35;;;;;;;10.50;10.20;;;19.40;99.90;;;;;;5132780;27;20237;-81
2023/10/04 10:13:04;;;;;;;10.82;10.52;;;19.50;99.90;;;;;;5131632;28;20248;-82
2023/10/04 10:15:32;;;;;;;10.65;10.35;;;19.60;99.90;;;;;;5130159;27;20259;-81
2023/10/04 10:18:01;;;;;;;10.68;10.38;;;19.60;99.90;;;;;;5127999;27;20232;-82
2023/10/04 10:20:30;;;;;;;10.70;10.40;;;19.60;99.90;;;;;;5129402;27;20284;-82
2023/10/04 10:23:13;;;;;;;10.70;10.40;;;19.50;99.90;;;;;;5127737;27;20296;-80
2023/10/04 10:25:41;;;;;;;10.95;10.65;;;19.20;99.90;;;;;;5129305;27;20216;-81
2023/10/04 10:28:22;;;;;;;10.82;10.52;;;18.80;99.90;;;;;;5132634;27;20248;-81
2023/10/04 10:31:00;;;;;;;11.00;10.70;;;18.70;99.90;;;;;;5135166;27;20233;-80
2023/10/04 10:33:28;;;;;;;10.85;10.55;;;18.80;99.90;;;;;;5127517;27;20725;-82
2023/10/04 10:36:00;;;;;;;10.85;10.55;;;18.40;99.90;;;;;;5131550;27;20221;-81
2023/10/04 10:38:49;;;;;;;11.00;10.70;;;18.30;99.90;;;;;;5131449;27;20292;-82
2023/10/04 10:42:03;;;;;;;10.63;10.32;;;18.60;99.90;;;;;;5135438;27;20221;-80
2023/10/04 10:44:34;;;;;;;10.68;10.38;;;19.00;99.90;;;;;;5132236;27;20232;-81
2023/10/04 10:47:06;;;;;;;10.85;10.55;;;19.00;99.90;;;;;;5126682;28;20229;-81
2023/10/04 10:49:50;;;;;;;10.70;10.40;;;18.70;99.90;;;;;;5128000;27;20240;-80
2023/10/04 10:52:41;;;;;;;11.00;10.70;;;18.50;99.90;;;;;;5114754;28;20247;-83
2023/10/04 10:55:14;;;;;;;10.77;10.48;;;18.50;99.90;;;;;;5128413;28;20235;-82
2023/10/04 10:57:44;;;;;;;10.90;10.60;;;19.10;99.90;;;;;;5128816;27;20213;-81
2023/10/04 11:00:19;;;;;;;10.68;10.38;;;19.60;99.90;;;;;;5148116;27;20228;-81
2023/10/04 11:02:46;;;;;;;11.10;10.80;;;19.50;99.90;;;;;;5145939;27;20242;-81
2023/10/04 11:05:16;;;;;;;10.63;10.32;;;19.40;99.90;;;;;;5141196;27;20224;-81
2023/10/04 11:07:44;;;;;;;10.52;10.23;;;19.20;99.90;;;;;;5127079;27;20240;-81
2023/10/04 11:10:17;;;;;;;10.50;10.20;;;19.10;99.90;;;;;;5126212;27;20268;-80
2023/10/04 11:12:46;;;;;;;10.57;10.27;;;19.50;99.90;;;;;;5127394;28;20267;-82
2023/10/04 11:15:17;;;;;;;10.55;10.25;;;19.70;99.90;;;;;;5127325;28;20228;-81
2023/10/04 11:17:46;;;;;;;10.77;10.48;;;19.90;99.90;;;;;;5127751;28;20221;-81
2023/10/04 11:20:17;;;;;;;10.93;10.63;;;20.00;99.90;;;;;;5141204;27;20232;-80
2023/10/04 11:22:45;;;;;;;10.75;10.45;;;20.50;99.90;;;;;;5125892;27;20254;-80
2023/10/04 11:25:13;;;;;;;10.70;10.40;;;20.50;99.90;;;;;;5131110;27;20225;-79
2023/10/04 11:27:43;;;;;;;10.40;10.10;;;20.50;99.90;;;;;;5124703;28;20272;-80
2023/10/04 11:30:13;;;;;;;10.55;10.25;;;19.90;99.90;;;;;;5139656;27;20240;-81
2023/10/04 11:32:41;;;;;;;10.77;10.48;;;19.70;99.90;;;;;;5128791;27;20290;-81
2023/10/04 11:35:09;;;;;;;11.15;10.85;;;19.90;99.90;;;;;;5146300;27;20239;-80
2023/10/04 11:37:41;;;;;;;10.73;10.43;;;20.20;99.90;;;;;;5146265;27;20232;-81
2023/10/04 11:40:11;;;;;;;11.02;10.73;;;20.40;99.90;;;;;;5141893;27;20236;-81
2023/10/04 11:42:38;;;;;;;11.00;10.70;;;20.00;99.90;;;;;;5125714;28;20237;-80
2023/10/04 11:45:18;;;;;;;10.73;10.43;;;20.00;99.90;;;;;;5128657;28;20217;-81
2023/10/04 11:47:59;;;;;;;11.10;10.80;;;19.80;99.90;;;;;;5126763;27;20239;-80
2023/10/04 11:50:27;;;;;;;11.20;10.90;;;19.60;99.90;;;;;;5125539;27;20232;-82
2023/10/04 11:52:56;;;;;;;10.80;10.50;;;19.50;99.90;;;;;;5124874;28;20240;-81
2023/10/04 11:55:27;;;;;;;10.73;10.43;;;19.10;99.90;;;;;;5131301;27;20312;-85
2023/10/04 11:58:05;;;;;;;10.60;10.30;;;18.80;99.90;;;;;;5129200;27;20227;-80
2023/10/04 12:00:32;;;;;;;10.40;10.10;;;18.70;99.90;;;;;;5129857;27;20236;-81
2023/10/04 12:03:00;;;;;;;10.55;10.25;;;18.70;99.90;;;;;;5131933;27;20311;-82
2023/10/04 12:05:27;;;;;;;10.90;10.60;;;19.10;99.90;;;;;;5143729;27;20220;-81
2023/10/04 12:07:58;;;;;;;10.75;10.45;;;19.30;99.90;;;;;;5129345;27;20229;-81
2023/10/04 12:10:25;;;;;;;10.20;9.90;;;19.50;99.90;;;;;;5128641;27;20243;-81
2023/10/04 12:12:55;;;;;;;10.50;10.20;;;19.50;99.90;;;;;;5128381;27;20228;-81
2023/10/04 12:15:24;;;;;;;10.57;10.27;;;19.60;99.90;;;;;;5135035;27;20260;-83
2023/10/04 12:17:56;;;;;;;10.55;10.25;;;19.70;99.90;;;;;;5123103;27;20247;-84
2023/10/04 12:20:24;;;;;;;10.90;10.60;;;19.50;99.90;;;;;;5122750;28;20323;-84
2023/10/04 12:22:51;;;;;;;11.27;10.98;;;18.60;99.90;;;;;;5122348;27;20231;-83
2023/10/04 12:25:24;;;;;;;10.82;10.52;;;18.50;99.90;;;;;;5130981;27;20244;-83
2023/10/04 12:27:52;;;;;;;10.88;10.57;;;18.60;99.90;;;;;;5132472;27;20221;-83
2023/10/04 12:30:27;;;;;;;11.05;10.75;;;18.80;99.90;;;;;;5122396;27;20304;-83
2023/10/04 12:32:56;;;;;;;10.75;10.45;;;19.30;99.90;;;;;;5136625;27;20255;-84
2023/10/04 12:35:23;;;;;;;10.98;10.68;;;19.30;99.90;;;;;;5122663;27;20237;-84
2023/10/04 12:37:52;;;;;;;11.10;10.80;;;19.10;99.90;;;;;;5123108;28;20298;-85
2023/10/04 12:40:34;;;;;;;11.10;10.80;;;18.90;99.90;;;;;;5122991;28;20228;-84
2023/10/04 12:43:01;;;;;;;11.38;11.07;;;19.10;99.90;;;;;;5119043;27;20259;-85
2023/10/04 12:45:29;;;;;;;10.80;10.50;;;19.60;99.90;;;;;;5140541;27;20239;-86
2023/10/04 12:47:59;;;;;;;10.82;10.52;;;19.70;99.90;;;;;;5127549;27;20231;-84
2023/10/04 12:50:38;;;;;;;10.75;10.45;;;19.70;99.90;;;;;;5128176;27;20264;-86
2023/10/04 12:53:09;;;;;;;10.90;10.60;;;20.00;99.90;;;;;;5123069;27;20239;-84
2023/10/04 12:55:39;;;;;;;11.10;10.80;;;20.50;99.90;;;;;;5122713;27;20229;-84
2023/10/04 12:58:07;;;;;;;10.65;10.35;;;20.80;99.90;;;;;;5139505;27;20227;-85
2023/10/04 13:00:36;;;;;;;11.05;10.75;;;20.10;99.90;;;;;;5126782;27;20264;-85
2023/10/04 13:03:04;;;;;;;10.50;10.20;;;20.20;99.90;;;;;;5126869;28;20255;-85
2023/10/04 13:05:37;;;;;;;10.93;10.63;;;20.60;99.90;;;;;;5126787;27;20220;-86
2023/10/04 13:08:07;;;;;;;11.05;10.75;;;21.00;99.90;;;;;;5127612;27;20213;-85
2023/10/04 13:10:36;;;;;;;11.00;10.70;;;21.30;99.90;;;;;;5126498;27;20233;-84
2023/10/04 13:15:51;;;;;;;11.18;10.88;;;21.30;99.90;;;;;;5125991;27;20286;-84
2023/10/04 13:18:19;;;;;;;11.30;11.00;;;21.70;99.90;;;;;;5125448;27;20232;-83